createdAt,value
2019-03-12T00:01:42.837Z,100745.02
2019-03-12T00:06:44.905Z,100758.77
2019-03-12T00:11:46.980Z,100774.85
2019-03-12T00:16:49.056Z,100770.77
2019-03-12T00:21:51.081Z,100772.89
2019-03-12T00:26:53.141Z,100789.43
2019-03-12T00:31:55.205Z,100806.22
2019-03-12T00:36:57.361Z,100805.01
2019-03-12T00:41:59.439Z,100820.13
2019-03-12T00:47:01.469Z,100833.09
2019-03-12T00:52:03.575Z,100852.88
2019-03-12T00:57:05.654Z,100866.16
2019-03-12T01:02:07.739Z,100867.47
2019-03-12T01:07:09.825Z,100872.68
2019-03-12T01:12:11.879Z,100875.28
2019-03-12T01:17:13.981Z,100876.38
2019-03-12T01:22:16.058Z,100881.42
2019-03-12T01:27:18.139Z,100883.16
2019-03-12T01:32:20.198Z,100880.44
2019-03-12T01:37:22.224Z,100885.43
2019-03-12T01:42:24.249Z,100900.49
2019-03-12T01:47:26.321Z,100901.75
2019-03-12T01:52:28.411Z,100897.61
2019-03-12T01:57:30.483Z,100901.69
2019-03-12T02:02:32.569Z,100913.45
2019-03-12T02:07:34.695Z,100920.87
2019-03-12T02:12:36.755Z,100920.95
2019-03-12T02:17:39.994Z,100930.52
2019-03-12T02:22:42.031Z,100934.05
2019-03-12T02:27:44.216Z,100931.13
2019-03-12T02:32:46.319Z,100929.86
2019-03-12T02:37:50.183Z,100928.15
2019-03-12T02:42:52.246Z,100930.63
2019-03-12T02:47:54.235Z,100935.56
2019-03-12T02:52:56.301Z,100927.25
2019-03-12T02:57:58.354Z,100925.66
2019-03-12T03:03:00.408Z,100935.60
2019-03-12T03:08:05.665Z,100932.41
2019-03-12T03:13:07.718Z,100936.28
2019-03-12T03:18:09.756Z,100930.17
2019-03-12T03:23:11.798Z,100930.19
2019-03-12T03:28:13.868Z,100932.42
2019-03-12T03:33:15.916Z,100936.58
2019-03-12T03:38:17.970Z,100943.30
2019-03-12T03:43:20.038Z,100940.70
2019-03-12T03:48:22.068Z,100938.66
2019-03-12T03:53:24.165Z,100954.48
2019-03-12T03:58:26.254Z,100947.44
2019-03-12T04:03:28.284Z,100946.24
2019-03-12T04:08:30.516Z,100953.31
2019-03-12T04:13:32.555Z,100953.99
2019-03-12T04:18:34.597Z,100957.05
2019-03-12T04:23:36.657Z,100947.01
2019-03-12T04:28:38.701Z,100950.25
2019-03-12T04:34:16.441Z,100955.37
2019-03-12T04:39:18.530Z,100956.67
2019-03-12T04:44:20.608Z,100956.48
2019-03-12T04:49:22.704Z,100963.89
2019-03-12T04:54:24.790Z,100981.86
2019-03-12T04:59:26.844Z,100981.76
2019-03-12T05:04:28.960Z,100978.59
2019-03-12T05:09:31.047Z,100971.72
2019-03-12T05:14:33.848Z,100978.89
2019-03-12T05:19:37.969Z,100976.47
2019-03-12T05:24:39.992Z,100979.34
2019-03-12T05:29:42.034Z,100976.92
2019-03-12T05:34:46.571Z,100973.02
2019-03-12T05:39:48.628Z,100972.56
2019-03-12T05:44:50.747Z,100978.53
2019-03-12T05:49:52.905Z,100978.91
2019-03-12T05:54:54.995Z,100977.48
2019-03-12T05:59:57.305Z,100977.48
2019-03-12T06:04:59.389Z,100963.47
2019-03-12T06:10:01.474Z,100968.38
2019-03-12T06:15:06.537Z,100981.42
2019-03-12T06:20:08.666Z,100994.14
2019-03-12T06:25:11.106Z,100981.78
2019-03-12T06:30:13.258Z,100974.88
2019-03-12T06:35:23.937Z,100972.37
2019-03-12T06:40:31.288Z,100971.36
2019-03-12T06:45:55.519Z,100968.09
2019-03-12T06:51:26.009Z,100968.00
2019-03-12T06:56:41.730Z,100955.55
2019-03-12T07:02:02.125Z,100948.84
2019-03-12T07:07:32.888Z,100942.26
2019-03-12T07:12:53.161Z,100945.88
2019-03-12T07:18:10.563Z,100946.05
2019-03-12T07:23:32.260Z,100946.75
2019-03-12T07:28:52.534Z,100944.52
2019-03-12T07:34:17.995Z,100948.14
2019-03-12T07:39:26.276Z,100939.96
2019-03-12T07:44:48.037Z,100946.10
2019-03-12T07:50:18.533Z,100941.13
2019-03-12T07:55:47.059Z,100944.63
2019-03-12T08:00:58.052Z,100941.01
2019-03-12T08:06:08.249Z,100943.38
2019-03-12T08:11:20.958Z,100937.36
2019-03-12T08:16:54.864Z,100942.70
2019-03-12T08:22:34.476Z,100938.56
2019-03-12T08:27:56.148Z,100933.07
2019-03-12T08:33:35.708Z,100918.67
2019-03-12T08:39:00.199Z,100919.30
2019-03-12T08:44:20.594Z,100907.76
2019-03-12T08:49:44.812Z,100905.39
2019-03-12T08:55:09.035Z,100897.67
2019-03-12T09:00:27.334Z,100887.46
2019-03-12T09:05:57.794Z,100877.89
2019-03-12T09:11:19.500Z,100877.34
2019-03-12T09:16:39.671Z,100880.68
2019-03-12T09:21:48.834Z,100866.06
2019-03-12T09:27:37.885Z,100856.36
2019-03-12T09:33:02.526Z,100844.80
2019-03-12T09:38:12.548Z,100836.58
2019-03-12T09:43:34.250Z,100830.83
2019-03-12T09:49:04.703Z,100812.53
2019-03-12T09:54:21.798Z,100811.56
2019-03-12T09:59:46.252Z,100791.55
2019-03-12T10:05:03.057Z,100792.90
2019-03-12T10:10:31.175Z,100788.36
2019-03-12T10:15:47.748Z,100788.15
2019-03-12T10:20:57.100Z,100799.55
2019-03-12T10:26:17.459Z,100783.61
2019-03-12T10:31:37.564Z,100765.66
2019-03-12T10:37:10.992Z,100743.97
2019-03-12T10:42:06.509Z,100752.58
2019-03-12T10:47:12.842Z,100740.24
2019-03-12T10:52:14.948Z,100727.67
2019-03-12T10:57:17.008Z,100709.45
2019-03-12T11:02:19.152Z,100719.45
2019-03-12T11:07:21.187Z,100704.28
2019-03-12T11:12:23.259Z,100689.88
2019-03-12T11:17:25.488Z,100679.48
2019-03-12T11:22:27.575Z,100677.30
2019-03-12T11:27:29.650Z,100664.52
2019-03-12T11:32:31.695Z,100657.10
2019-03-12T11:37:34.875Z,100643.05
2019-03-12T11:42:37.077Z,100638.17
2019-03-12T11:47:39.857Z,100627.95
2019-03-12T11:52:52.530Z,100630.42
2019-03-12T11:57:46.478Z,100626.21
2019-03-12T12:02:59.361Z,100601.48
2019-03-12T12:07:52.549Z,100587.89
2019-03-12T12:12:54.604Z,100579.55
2019-03-12T12:17:56.678Z,100557.09
2019-03-12T12:23:01.323Z,100547.23
2019-03-12T12:28:03.427Z,100524.52
2019-03-12T12:33:05.491Z,100511.83
2019-03-12T12:38:07.574Z,100503.78
2019-03-12T12:43:09.680Z,100496.53
2019-03-12T12:48:11.761Z,100475.73
2019-03-12T12:53:13.847Z,100462.74
2019-03-12T12:58:15.898Z,100461.11
2019-03-12T13:03:17.960Z,100447.66
2019-03-12T13:08:20.017Z,100437.55
2019-03-12T13:13:22.165Z,100419.06
2019-03-12T13:18:24.239Z,100407.91
2019-03-12T13:23:26.312Z,100404.31
2019-03-12T13:28:28.381Z,100392.30
2019-03-12T13:33:30.430Z,100376.09
2019-03-12T13:38:45.014Z,100366.75
2019-03-12T13:43:38.925Z,100351.58
2019-03-12T13:48:40.975Z,100346.18
2019-03-12T13:53:43.055Z,100339.44
2019-03-12T13:58:45.117Z,100331.36
2019-03-12T14:03:47.412Z,100306.79
2019-03-12T14:08:51.867Z,100306.59
2019-03-12T14:13:53.927Z,100300.98
2019-03-12T14:18:55.976Z,100295.89
2019-03-12T14:24:03.096Z,100283.23
2019-03-12T14:29:06.149Z,100270.48
2019-03-12T14:34:08.177Z,100262.75
2019-03-12T14:39:10.225Z,100242.66
2019-03-12T14:44:12.274Z,100236.17
2019-03-12T14:49:14.276Z,100222.17
2019-03-12T14:54:16.378Z,100211.68
2019-03-12T14:59:18.484Z,100191.41
2019-03-12T15:04:20.585Z,100184.67
2019-03-12T15:09:22.690Z,100172.95
2019-03-12T15:14:24.780Z,100165.14
2019-03-12T15:19:26.923Z,100145.82
2019-03-12T15:24:29.309Z,100143.77
2019-03-12T15:29:31.478Z,100131.38
2019-03-12T15:34:33.565Z,100129.34
2019-03-12T15:39:35.666Z,100114.38
2019-03-12T15:44:37.716Z,100104.46
2019-03-12T15:49:43.000Z,100092.52
2019-03-12T15:54:43.826Z,100081.86
2019-03-12T15:59:45.889Z,100058.00
2019-03-12T16:04:47.973Z,100034.04
2019-03-12T16:09:50.018Z,100007.92
2019-03-12T16:14:52.100Z,99999.05
2019-03-12T16:19:54.199Z,99994.34
2019-03-12T16:24:56.240Z,99979.42
2019-03-12T16:29:58.317Z,99952.63
2019-03-12T16:35:00.380Z,99946.70
2019-03-12T16:40:02.431Z,99935.39
2019-03-12T16:45:05.234Z,99929.03
2019-03-12T16:50:07.784Z,99910.24
2019-03-12T16:55:09.991Z,99894.49
2019-03-12T17:00:12.294Z,99881.48
2019-03-12T17:05:14.570Z,99863.37
2019-03-12T17:10:16.723Z,99863.95
2019-03-12T17:15:18.982Z,99844.02
2019-03-12T17:20:21.035Z,99832.45
2019-03-12T17:25:23.110Z,99824.82
2019-03-12T17:30:25.175Z,99813.27
2019-03-12T17:35:27.360Z,99806.91
2019-03-12T17:40:29.465Z,99796.86
2019-03-12T17:45:31.534Z,99786.11
2019-03-12T17:50:33.687Z,99769.06
2019-03-12T17:55:35.782Z,99760.67
2019-03-12T18:00:39.792Z,99734.02
2019-03-12T18:05:41.885Z,99730.05
2019-03-12T18:10:43.977Z,99717.66
2019-03-12T18:15:46.114Z,99701.58
2019-03-12T18:20:48.199Z,99676.02
2019-03-12T18:25:50.373Z,99656.89
2019-03-12T18:30:52.472Z,99656.06
2019-03-12T18:35:54.503Z,99632.66
2019-03-12T18:40:56.725Z,99618.39
2019-03-12T18:45:58.843Z,99603.00
2019-03-12T18:51:00.876Z,99591.89
2019-03-12T18:56:07.351Z,99579.67
2019-03-12T19:01:11.208Z,99565.72
2019-03-12T19:06:13.276Z,99555.23
2019-03-12T19:11:19.069Z,99544.48
2019-03-12T19:16:21.158Z,99528.42
2019-03-12T19:21:23.322Z,99504.09
2019-03-12T19:26:26.727Z,99496.04
2019-03-12T19:32:03.884Z,99468.66
2019-03-12T19:37:06.184Z,99475.25
2019-03-12T19:42:11.800Z,99448.08
2019-03-12T19:47:14.026Z,99427.32
2019-03-12T19:52:16.107Z,99417.97
2019-03-12T19:57:18.195Z,99404.19
2019-03-12T20:02:20.609Z,99403.66
2019-03-12T20:07:22.687Z,99390.79
2019-03-12T20:13:15.803Z,99375.17
2019-03-12T20:19:08.954Z,99359.20
2019-03-12T20:24:47.729Z,99330.87
2019-03-12T20:30:27.766Z,99313.83
2019-03-12T20:36:16.517Z,99292.59
2019-03-12T20:41:55.360Z,99282.64
2019-03-12T20:47:35.019Z,99272.30
2019-03-12T20:53:34.421Z,99244.98
2019-03-12T20:59:29.141Z,99243.52
2019-03-12T21:05:15.224Z,99248.86
2019-03-12T21:11:05.354Z,99223.54
2019-03-12T21:16:53.550Z,99223.41
2019-03-12T21:22:34.906Z,99221.77
2019-03-12T21:28:18.629Z,99206.11
2019-03-12T21:33:20.750Z,99184.78
2019-03-12T21:38:24.761Z,99165.52
2019-03-12T21:43:26.870Z,99154.27
2019-03-12T21:48:28.940Z,99135.02
2019-03-12T21:53:31.028Z,99123.78
2019-03-12T21:58:33.094Z,99121.69
2019-03-12T22:03:35.237Z,99104.70
2019-03-12T22:08:37.362Z,99090.16
2019-03-12T22:13:39.540Z,99061.77
2019-03-12T22:18:41.664Z,99048.20
2019-03-12T22:23:46.500Z,99028.45
2019-03-12T22:28:48.594Z,99024.16
2019-03-12T22:33:50.944Z,99033.49
2019-03-12T22:38:52.983Z,99014.88
2019-03-12T22:43:55.250Z,99016.36
2019-03-12T22:48:57.300Z,99013.27
2019-03-12T22:53:59.395Z,99001.98
2019-03-12T22:59:01.528Z,98979.62
2019-03-12T23:04:03.827Z,98981.22
2019-03-12T23:09:06.255Z,98967.17
2019-03-12T23:14:08.361Z,98952.47
2019-03-12T23:19:10.526Z,98945.94
2019-03-12T23:24:12.611Z,98946.91
2019-03-12T23:29:14.654Z,98948.55
2019-03-12T23:34:16.678Z,98972.75
2019-03-12T23:39:18.774Z,98962.48
2019-03-12T23:44:20.867Z,98968.20
2019-03-12T23:49:23.187Z,98969.02
2019-03-12T23:54:25.349Z,98962.16
2019-03-12T23:59:27.346Z,98941.40
